Time;durP1;ratioP1;P1;durP2;ratioP2;P2;SDS_P1;SDS_P2;PMS_P1;PMS_P2;Temp;Humidity;BMP_temperature;BMP_pressure;BME280_temperature;BME280_humidity;BME280_pressure;Samples;Min_cycle;Max_cycle;Signal;HPM_P1;HPM_P2
2023/07/02 00:03:00;;;;;;;6.27;5.13;;;20.70;94.80;;;;;;6272542;28;20232;-64
2023/07/02 00:06:03;;;;;;;9.43;5.30;;;20.70;94.80;;;;;;6272428;28;20228;-64
2023/07/02 00:09:08;;;;;;;6.00;5.40;;;20.70;95.00;;;;;;6275036;28;20243;-63
2023/07/02 00:12:12;;;;;;;5.03;4.43;;;20.70;95.30;;;;;;6282468;28;20251;-64
2023/07/02 00:15:15;;;;;;;5.57;4.70;;;20.70;95.40;;;;;;6278698;28;20672;-63
2023/07/02 00:18:18;;;;;;;4.83;4.40;;;20.70;95.50;;;;;;6278044;28;20620;-62
2023/07/02 00:21:21;;;;;;;4.77;4.37;;;20.70;95.60;;;;;;6278225;28;20234;-62
2023/07/02 00:24:26;;;;;;;6.40;4.60;;;20.70;95.70;;;;;;6277255;28;20219;-62
2023/07/02 00:27:29;;;;;;;6.70;4.60;;;20.60;96.00;;;;;;6276738;28;20219;-63
2023/07/02 00:30:32;;;;;;;5.67;5.03;;;20.50;96.50;;;;;;6277250;28;20219;-63
2023/07/02 00:33:35;;;;;;;6.27;5.37;;;20.50;96.50;;;;;;6284063;28;20308;-62
2023/07/02 00:36:38;;;;;;;5.90;4.73;;;20.50;96.70;;;;;;6272697;28;20243;-63
2023/07/02 00:39:43;;;;;;;5.40;4.90;;;20.40;96.90;;;;;;6257771;28;20232;-62
2023/07/02 00:42:46;;;;;;;6.43;5.83;;;20.50;97.00;;;;;;6277687;28;20227;-62
2023/07/02 00:45:51;;;;;;;6.30;5.57;;;20.50;97.00;;;;;;6277679;28;20245;-64
2023/07/02 00:48:56;;;;;;;5.43;5.03;;;20.50;97.30;;;;;;6276884;28;20293;-63
2023/07/02 00:51:59;;;;;;;6.10;5.37;;;20.40;97.30;;;;;;6277589;28;20639;-63
2023/07/02 00:55:04;;;;;;;4.33;3.93;;;20.40;97.30;;;;;;6277369;28;20613;-63
2023/07/02 00:58:08;;;;;;;5.60;5.10;;;20.40;97.30;;;;;;6277200;28;20644;-65
2023/07/02 01:01:11;;;;;;;6.20;4.87;;;20.40;97.70;;;;;;6277437;28;20227;-63
2023/07/02 01:04:14;;;;;;;6.47;5.77;;;20.40;97.70;;;;;;6277250;28;20555;-64
2023/07/02 01:07:17;;;;;;;5.37;4.80;;;20.30;98.00;;;;;;6277057;28;20744;-62
2023/07/02 01:10:22;;;;;;;6.37;5.33;;;20.30;98.20;;;;;;6276171;28;20322;-67
2023/07/02 01:13:26;;;;;;;5.03;4.53;;;20.30;98.40;;;;;;6274220;28;20219;-66
2023/07/02 01:16:32;;;;;;;5.50;5.07;;;20.20;98.50;;;;;;6268094;28;20298;-65
2023/07/02 01:19:51;;;;;;;7.10;5.60;;;20.20;98.70;;;;;;6233401;28;20225;-64
2023/07/02 01:22:54;;;;;;;8.80;5.43;;;20.20;98.90;;;;;;6246585;28;20224;-67
2023/07/02 01:25:59;;;;;;;6.60;5.67;;;20.20;99.10;;;;;;6249576;28;20236;-65
2023/07/02 01:29:15;;;;;;;6.20;5.13;;;20.20;99.30;;;;;;6245214;28;20230;-62
2023/07/02 01:32:19;;;;;;;6.50;5.30;;;20.20;99.10;;;;;;6235739;28;20244;-62
2023/07/02 01:35:25;;;;;;;5.80;4.80;;;20.30;99.00;;;;;;6273575;28;20243;-62
2023/07/02 01:38:28;;;;;;;5.43;4.93;;;20.20;98.90;;;;;;6276192;28;20727;-62
2023/07/02 01:41:34;;;;;;;5.87;5.27;;;20.20;98.80;;;;;;6276579;28;20213;-62
2023/07/02 01:44:38;;;;;;;5.90;5.30;;;20.20;98.80;;;;;;6276287;28;20533;-62
2023/07/02 01:47:41;;;;;;;6.30;5.00;;;20.20;98.80;;;;;;6276381;28;20230;-61
2023/07/02 01:50:46;;;;;;;7.03;5.20;;;20.20;98.70;;;;;;6276018;28;20542;-62
2023/07/02 01:53:50;;;;;;;5.57;5.07;;;20.20;98.70;;;;;;6275978;28;20587;-62
2023/07/02 01:56:53;;;;;;;6.00;5.40;;;20.20;98.80;;;;;;6275480;28;20239;-61
2023/07/02 01:59:56;;;;;;;5.80;5.10;;;20.10;98.70;;;;;;6276252;28;20227;-63
2023/07/02 02:02:59;;;;;;;6.60;5.10;;;20.00;98.60;;;;;;6261670;28;20220;-63
2023/07/02 02:06:04;;;;;;;6.93;6.30;;;20.00;98.50;;;;;;6249284;28;20228;-61
2023/07/02 02:09:09;;;;;;;5.70;5.20;;;19.90;99.00;;;;;;6249450;28;20246;-61
2023/07/02 02:12:14;;;;;;;4.93;4.43;;;19.90;99.10;;;;;;6250506;28;20299;-59
2023/07/02 02:15:17;;;;;;;5.97;5.47;;;19.90;99.90;;;;;;6250628;28;20672;-61
2023/07/02 02:18:20;;;;;;;5.63;5.13;;;20.10;99.30;;;;;;6250675;28;20235;-61
2023/07/02 02:21:24;;;;;;;6.50;5.47;;;20.30;99.50;;;;;;6250897;28;20224;-61
2023/07/02 02:24:28;;;;;;;7.67;6.40;;;20.40;99.10;;;;;;6250516;28;20675;-60
2023/07/02 02:27:31;;;;;;;6.20;5.60;;;20.70;98.40;;;;;;6250661;28;20240;-60
2023/07/02 02:30:34;;;;;;;5.93;5.33;;;20.60;97.50;;;;;;6250725;28;20229;-60
2023/07/02 02:33:38;;;;;;;8.73;5.77;;;20.60;97.80;;;;;;6273668;28;20399;-61
2023/07/02 02:36:43;;;;;;;7.03;5.77;;;20.50;97.30;;;;;;6275455;28;20246;-60
2023/07/02 02:39:46;;;;;;;6.43;5.83;;;20.50;97.30;;;;;;6275490;28;20289;-60
2023/07/02 02:42:49;;;;;;;11.20;5.27;;;20.50;97.30;;;;;;6274791;28;20224;-61
2023/07/02 02:45:53;;;;;;;6.57;5.97;;;20.50;97.30;;;;;;6275028;28;20573;-61
2023/07/02 02:48:56;;;;;;;6.27;5.77;;;20.40;97.30;;;;;;6276873;28;20227;-61
2023/07/02 02:52:00;;;;;;;5.67;5.13;;;20.50;97.60;;;;;;6276598;28;20241;-60
2023/07/02 02:55:04;;;;;;;6.37;5.77;;;20.40;97.30;;;;;;6274996;28;20227;-60
2023/07/02 02:58:07;;;;;;;9.03;6.20;;;20.40;97.60;;;;;;6274650;28;20231;-60
2023/07/02 03:01:10;;;;;;;7.90;6.40;;;20.50;97.30;;;;;;6275000;28;20246;-60
2023/07/02 03:04:14;;;;;;;7.60;6.83;;;20.50;97.30;;;;;;6274818;28;20745;-60
2023/07/02 03:07:19;;;;;;;6.27;5.53;;;20.50;97.20;;;;;;6275045;28;20577;-60
2023/07/02 03:10:22;;;;;;;5.87;5.37;;;20.30;97.10;;;;;;6275934;28;20231;-60
2023/07/02 03:13:25;;;;;;;6.90;6.07;;;20.30;97.20;;;;;;6275240;28;20242;-60
2023/07/02 03:16:28;;;;;;;7.30;6.67;;;20.20;97.20;;;;;;6274290;28;20234;-60
2023/07/02 03:19:32;;;;;;;7.03;6.50;;;20.20;97.30;;;;;;6274481;28;20761;-60
2023/07/02 03:22:36;;;;;;;6.50;5.90;;;20.10;97.50;;;;;;6274613;28;20725;-60
2023/07/02 03:25:39;;;;;;;6.80;6.20;;;20.10;97.70;;;;;;6274236;28;20242;-60
2023/07/02 03:28:42;;;;;;;7.03;6.43;;;20.00;97.60;;;;;;6265467;28;20231;-60
2023/07/02 03:31:46;;;;;;;6.10;5.60;;;19.90;97.70;;;;;;6274807;28;20236;-60
2023/07/02 03:34:49;;;;;;;6.67;6.07;;;19.90;97.90;;;;;;6256661;28;20244;-60
2023/07/02 03:37:53;;;;;;;7.90;7.20;;;19.80;97.90;;;;;;6250057;28;20223;-61
2023/07/02 03:40:57;;;;;;;6.77;6.20;;;19.80;98.00;;;;;;6249541;28;20547;-61
2023/07/02 03:44:00;;;;;;;7.57;5.77;;;19.70;98.10;;;;;;6251500;28;20265;-61
2023/07/02 03:47:03;;;;;;;6.37;5.77;;;19.70;98.10;;;;;;6254329;28;20255;-61
2023/07/02 03:50:07;;;;;;;6.70;5.90;;;19.70;98.30;;;;;;6254495;28;20652;-61
2023/07/02 03:53:11;;;;;;;7.93;6.23;;;19.70;98.30;;;;;;6254375;28;20246;-60
2023/07/02 03:56:14;;;;;;;7.27;6.57;;;19.70;98.40;;;;;;6254263;28;20242;-61
2023/07/02 03:59:18;;;;;;;6.17;5.67;;;19.70;98.30;;;;;;6254133;28;20595;-60
2023/07/02 04:02:21;;;;;;;6.97;6.33;;;19.70;98.20;;;;;;6253802;28;20287;-60
2023/07/02 04:05:24;;;;;;;7.30;6.70;;;19.70;98.40;;;;;;6253587;28;20295;-60
2023/07/02 04:08:29;;;;;;;7.40;6.80;;;19.80;98.50;;;;;;6253684;28;20555;-60
2023/07/02 04:11:32;;;;;;;6.03;5.47;;;19.90;98.40;;;;;;6253855;28;20226;-60
2023/07/02 04:14:35;;;;;;;7.17;6.40;;;20.00;98.20;;;;;;6254217;28;20224;-60
2023/07/02 04:17:38;;;;;;;8.53;7.13;;;20.10;98.00;;;;;;6253345;28;20522;-60
2023/07/02 04:20:41;;;;;;;8.30;7.30;;;20.20;97.80;;;;;;6253697;28;20656;-60
2023/07/02 04:23:46;;;;;;;7.27;6.57;;;20.20;97.70;;;;;;6253993;28;20371;-60
2023/07/02 04:26:50;;;;;;;7.30;6.30;;;20.10;97.80;;;;;;6253778;28;20259;-60
2023/07/02 04:30:14;;;;;;;7.00;6.33;;;20.20;97.90;;;;;;6249437;28;20235;-60
2023/07/02 04:33:18;;;;;;;7.47;6.87;;;20.30;97.70;;;;;;6253631;28;20246;-60
2023/07/02 04:36:21;;;;;;;7.60;6.90;;;20.30;97.60;;;;;;6253417;28;20343;-60
2023/07/02 04:39:25;;;;;;;7.87;7.00;;;20.30;97.60;;;;;;6253447;28;20689;-60
2023/07/02 04:42:31;;;;;;;7.90;5.93;;;20.30;97.50;;;;;;6253467;28;20252;-60
2023/07/02 04:45:36;;;;;;;7.27;6.57;;;20.30;97.70;;;;;;6253120;28;20228;-60
2023/07/02 04:48:39;;;;;;;6.63;6.03;;;20.20;97.80;;;;;;6253082;28;20692;-60
2023/07/02 04:51:43;;;;;;;9.33;8.50;;;20.20;97.80;;;;;;6253254;28;20537;-60
2023/07/02 04:54:47;;;;;;;7.00;6.30;;;20.20;97.90;;;;;;6252849;28;20258;-60
2023/07/02 04:57:50;;;;;;;7.47;6.83;;;20.20;98.00;;;;;;6252880;28;20726;-61
2023/07/02 05:00:54;;;;;;;6.47;5.93;;;20.20;97.90;;;;;;6253019;28;20246;-61
2023/07/02 05:03:57;;;;;;;7.93;6.87;;;20.30;98.00;;;;;;6252519;28;20561;-61
2023/07/02 05:07:01;;;;;;;7.03;6.43;;;20.40;97.80;;;;;;6252538;28;20306;-61
2023/07/02 05:10:06;;;;;;;8.60;7.00;;;20.40;97.50;;;;;;6252517;28;20631;-61
2023/07/02 05:13:09;;;;;;;8.50;7.80;;;20.50;97.60;;;;;;6252007;28;20227;-61
2023/07/02 05:16:13;;;;;;;8.87;7.97;;;20.60;97.80;;;;;;6252449;28;20236;-61
2023/07/02 05:19:16;;;;;;;8.10;7.40;;;20.60;98.30;;;;;;6252187;28;20232;-61
2023/07/02 05:22:19;;;;;;;7.67;7.00;;;20.80;98.10;;;;;;6252325;28;20228;-61
2023/07/02 05:25:24;;;;;;;8.70;7.00;;;20.90;98.00;;;;;;6252107;28;20239;-60
2023/07/02 05:28:27;;;;;;;8.07;7.27;;;21.10;97.70;;;;;;6251893;28;20229;-60
2023/07/02 05:31:30;;;;;;;7.47;6.80;;;21.30;97.70;;;;;;6251457;28;20756;-60
2023/07/02 05:34:33;;;;;;;8.73;7.73;;;21.40;97.90;;;;;;6251732;28;20251;-60
2023/07/02 05:37:36;;;;;;;8.00;7.30;;;21.50;97.90;;;;;;6251905;28;20243;-61
2023/07/02 05:40:41;;;;;;;7.63;6.93;;;21.60;97.90;;;;;;6252243;28;20232;-61
2023/07/02 05:43:44;;;;;;;7.40;6.77;;;21.70;97.80;;;;;;6251840;28;20280;-61
2023/07/02 05:46:47;;;;;;;9.00;8.10;;;22.00;97.20;;;;;;6251357;28;20236;-61
2023/07/02 05:49:50;;;;;;;8.00;7.30;;;22.20;96.60;;;;;;6251711;28;20232;-61
2023/07/02 05:52:54;;;;;;;7.13;6.53;;;22.20;95.90;;;;;;6251340;28;20238;-61
2023/07/02 05:55:58;;;;;;;7.37;6.77;;;22.20;96.20;;;;;;6251369;28;20343;-61
2023/07/02 05:59:01;;;;;;;8.17;7.47;;;22.30;95.90;;;;;;6251454;28;20232;-61
2023/07/02 06:02:05;;;;;;;11.00;8.90;;;22.20;95.30;;;;;;6251116;28;20552;-61
2023/07/02 06:05:09;;;;;;;7.87;7.17;;;22.10;95.50;;;;;;6251507;28;20307;-61
2023/07/02 06:08:12;;;;;;;8.10;7.33;;;22.20;95.60;;;;;;6250855;28;20707;-61
2023/07/02 06:11:17;;;;;;;8.60;7.67;;;22.20;95.60;;;;;;6250957;28;20307;-61
2023/07/02 06:14:20;;;;;;;8.63;7.93;;;22.20;95.70;;;;;;6250863;28;20232;-61
2023/07/02 06:17:24;;;;;;;8.23;7.50;;;22.20;95.50;;;;;;6250832;28;20232;-61
2023/07/02 06:20:28;;;;;;;8.60;7.87;;;22.20;95.40;;;;;;6251146;28;20575;-61
2023/07/02 06:23:40;;;;;;;8.57;7.67;;;22.30;95.50;;;;;;6250753;28;20211;-61
2023/07/02 06:26:44;;;;;;;11.77;7.90;;;22.40;95.60;;;;;;6250814;28;20762;-61
2023/07/02 06:29:47;;;;;;;8.23;7.53;;;22.60;96.20;;;;;;6251571;28;20229;-61
2023/07/02 06:32:51;;;;;;;8.70;7.87;;;22.90;95.70;;;;;;6251710;28;20238;-61
2023/07/02 06:35:54;;;;;;;8.10;7.37;;;23.10;95.70;;;;;;6250858;28;20232;-61
2023/07/02 06:38:57;;;;;;;9.13;8.40;;;23.20;95.40;;;;;;6241673;28;20309;-62
2023/07/02 06:42:02;;;;;;;8.30;7.60;;;23.40;95.30;;;;;;6249998;28;20660;-61
2023/07/02 06:45:06;;;;;;;8.80;8.20;;;23.50;95.10;;;;;;6250856;28;20224;-61
2023/07/02 06:48:09;;;;;;;7.87;7.20;;;23.60;95.10;;;;;;6249992;28;20239;-61
2023/07/02 06:51:14;;;;;;;10.33;8.13;;;23.60;95.10;;;;;;6250468;28;20224;-61
2023/07/02 06:54:18;;;;;;;8.47;7.73;;;23.60;95.30;;;;;;6250520;28;20290;-61
2023/07/02 06:57:23;;;;;;;8.70;8.00;;;24.10;95.10;;;;;;6250634;28;20290;-61
2023/07/02 07:00:26;;;;;;;9.23;8.40;;;25.20;93.60;;;;;;6247690;28;20683;-61
2023/07/02 07:03:29;;;;;;;6.97;6.37;;;26.00;90.90;;;;;;6249471;28;20253;-62
2023/07/02 07:06:33;;;;;;;7.77;7.13;;;27.10;89.00;;;;;;6249462;28;20242;-62
2023/07/02 07:09:36;;;;;;;7.43;6.73;;;28.60;83.80;;;;;;6250059;28;20380;-61
2023/07/02 07:12:41;;;;;;;7.80;7.20;;;29.90;79.80;;;;;;6249146;28;20223;-63
2023/07/02 07:15:44;;;;;;;7.67;7.07;;;30.80;73.50;;;;;;6247725;28;20235;-65
2023/07/02 07:18:47;;;;;;;7.63;6.25;;;30.50;71.00;;;;;;6251127;28;20223;-64
2023/07/02 07:21:51;;;;;;;6.60;6.10;;;30.70;69.00;;;;;;6254957;28;20223;-67
2023/07/02 07:24:54;;;;;;;6.90;6.38;;;31.70;68.20;;;;;;6255000;28;20241;-64
2023/07/02 07:28:00;;;;;;;6.88;6.20;;;33.10;63.40;;;;;;6253989;28;20238;-65
2023/07/02 07:31:03;;;;;;;7.15;6.45;;;34.50;59.20;;;;;;6254692;28;20223;-65
2023/07/02 07:34:06;;;;;;;7.20;4.80;;;35.70;54.10;;;;;;6266373;28;20230;-64
2023/07/02 07:37:10;;;;;;;8.20;6.15;;;36.80;49.80;;;;;;6279373;28;20237;-63
2023/07/02 07:40:13;;;;;;;5.03;4.55;;;36.60;48.00;;;;;;6279632;28;20230;-66
2023/07/02 07:43:18;;;;;;;4.88;4.47;;;35.40;48.50;;;;;;6274665;28;20250;-66
2023/07/02 07:46:21;;;;;;;5.13;4.72;;;34.00;49.70;;;;;;6279118;28;20226;-64
2023/07/02 07:49:27;;;;;;;4.20;3.90;;;32.80;51.60;;;;;;6279404;28;20226;-63
2023/07/02 07:52:30;;;;;;;4.93;4.53;;;32.20;52.80;;;;;;6279274;28;20264;-65
2023/07/02 07:55:33;;;;;;;4.88;4.40;;;31.60;53.50;;;;;;6279237;28;20666;-65
2023/07/02 07:58:38;;;;;;;3.35;3.05;;;31.00;55.50;;;;;;6279240;28;20251;-64
2023/07/02 08:01:41;;;;;;;4.40;4.10;;;30.60;55.30;;;;;;6280574;28;20242;-64
2023/07/02 08:04:45;;;;;;;4.53;4.22;;;29.90;56.90;;;;;;6279741;28;20902;-66
2023/07/02 08:07:48;;;;;;;3.73;3.43;;;29.60;57.70;;;;;;6279128;28;20234;-66
2023/07/02 08:10:51;;;;;;;3.60;3.30;;;29.30;57.90;;;;;;6279516;28;20226;-63
2023/07/02 08:13:56;;;;;;;3.57;2.90;;;29.10;58.50;;;;;;6279456;28;20581;-62
2023/07/02 08:16:59;;;;;;;2.87;2.50;;;29.10;58.00;;;;;;6279040;28;20611;-64
2023/07/02 08:20:04;;;;;;;2.80;2.50;;;29.20;57.30;;;;;;6279238;28;20288;-66
2023/07/02 08:23:07;;;;;;;4.07;2.53;;;29.40;57.50;;;;;;6279023;28;20237;-65
2023/07/02 08:26:11;;;;;;;4.70;3.40;;;29.80;57.00;;;;;;6278555;28;20227;-66
2023/07/02 08:29:16;;;;;;;3.83;3.53;;;29.70;57.00;;;;;;6278482;28;20388;-65
2023/07/02 08:32:19;;;;;;;3.40;2.57;;;29.50;57.50;;;;;;6283863;28;20241;-67
2023/07/02 08:35:23;;;;;;;3.73;2.73;;;29.30;56.60;;;;;;6286633;28;20243;-66
2023/07/02 08:38:26;;;;;;;3.20;2.30;;;29.30;57.90;;;;;;6279370;28;20242;-65
2023/07/02 08:41:31;;;;;;;3.97;3.67;;;28.90;58.60;;;;;;6278570;28;20207;-65
2023/07/02 08:44:36;;;;;;;2.93;2.73;;;28.70;59.30;;;;;;6278430;28;20356;-65
2023/07/02 08:47:39;;;;;;;2.90;2.70;;;28.40;59.70;;;;;;6278223;28;20233;-65
2023/07/02 08:50:44;;;;;;;2.80;2.60;;;28.30;60.00;;;;;;6277532;28;20203;-66
2023/07/02 08:53:47;;;;;;;3.07;2.77;;;28.30;60.50;;;;;;6277748;28;20360;-67
2023/07/02 08:56:50;;;;;;;2.77;2.57;;;28.50;61.30;;;;;;6277792;28;20249;-65
2023/07/02 08:59:54;;;;;;;3.30;3.00;;;28.80;60.80;;;;;;6278388;28;20246;-65
2023/07/02 09:02:58;;;;;;;4.27;2.13;;;29.10;59.90;;;;;;6277607;28;20300;-66
2023/07/02 09:06:01;;;;;;;3.50;2.50;;;29.10;60.60;;;;;;6277789;28;20567;-66
2023/07/02 09:09:06;;;;;;;2.47;2.27;;;29.20;59.10;;;;;;6276488;28;20552;-64
2023/07/02 09:12:09;;;;;;;2.50;2.30;;;29.40;58.50;;;;;;6259627;28;20697;-66
2023/07/02 09:15:15;;;;;;;3.27;2.97;;;29.60;58.40;;;;;;6276980;28;20254;-65
2023/07/02 09:18:23;;;;;;;2.30;2.10;;;29.60;57.70;;;;;;6275473;28;20219;-65
2023/07/02 09:21:41;;;;;;;3.03;2.27;;;29.50;57.60;;;;;;6275196;28;20272;-65
2023/07/02 09:24:53;;;;;;;2.90;2.30;;;29.50;58.10;;;;;;6270204;28;20228;-65
2023/07/02 09:27:56;;;;;;;2.73;2.53;;;29.70;58.20;;;;;;6266933;28;20249;-65
2023/07/02 09:31:00;;;;;;;3.13;2.47;;;29.80;57.90;;;;;;6277907;28;20290;-64
2023/07/02 09:34:04;;;;;;;2.67;1.90;;;30.10;57.30;;;;;;6274916;28;20236;-65
2023/07/02 09:37:07;;;;;;;1.80;1.65;;;30.30;56.90;;;;;;6256985;28;20679;-64
2023/07/02 09:40:11;;;;;;;2.42;2.22;;;30.70;56.00;;;;;;6252458;28;20231;-64
2023/07/02 09:43:19;;;;;;;4.70;2.22;;;31.00;55.10;;;;;;6254649;28;20250;-66
2023/07/02 09:46:27;;;;;;;1.70;1.60;;;30.90;54.40;;;;;;6275859;28;20225;-66
2023/07/02 09:49:33;;;;;;;2.30;2.10;;;30.70;55.10;;;;;;6275823;28;20662;-65
2023/07/02 09:52:37;;;;;;;1.95;1.85;;;30.80;55.00;;;;;;6266653;28;20250;-66
2023/07/02 09:55:40;;;;;;;3.63;2.00;;;31.00;53.90;;;;;;6275488;28;20679;-66
2023/07/02 09:58:45;;;;;;;2.30;2.10;;;31.00;53.20;;;;;;6275834;28;20223;-65
2023/07/02 10:01:50;;;;;;;1.83;1.73;;;30.80;52.70;;;;;;6275890;28;20223;-65
2023/07/02 10:04:55;;;;;;;1.60;1.50;;;30.70;52.60;;;;;;6275787;28;20563;-64
2023/07/02 10:08:12;;;;;;;1.73;1.63;;;30.80;52.20;;;;;;6275686;28;20241;-64
2023/07/02 10:11:15;;;;;;;2.35;2.05;;;30.70;52.30;;;;;;6275539;28;20346;-64
2023/07/02 10:14:19;;;;;;;1.70;1.60;;;30.70;52.20;;;;;;6275738;28;20368;-64
2023/07/02 10:17:28;;;;;;;2.15;1.77;;;30.80;52.70;;;;;;6275767;28;20313;-64
2023/07/02 10:20:34;;;;;;;2.83;2.55;;;30.90;52.40;;;;;;6275874;28;20211;-63
2023/07/02 10:23:38;;;;;;;1.70;1.60;;;31.00;52.30;;;;;;6275752;28;20191;-64
2023/07/02 10:26:53;;;;;;;4.28;3.80;;;31.00;52.60;;;;;;6274736;28;20216;-67
2023/07/02 10:29:57;;;;;;;8.55;7.47;;;30.70;51.90;;;;;;6275746;28;20242;-65
2023/07/02 10:33:12;;;;;;;2.33;2.08;;;30.50;52.40;;;;;;6272837;28;20247;-65
2023/07/02 10:36:24;;;;;;;2.15;1.40;;;30.30;51.90;;;;;;6209047;28;20232;-65
2023/07/02 10:39:31;;;;;;;2.55;1.88;;;30.20;52.10;;;;;;6225306;28;20228;-65
2023/07/02 10:42:34;;;;;;;2.03;1.83;;;30.30;52.30;;;;;;6226353;28;20232;-63
2023/07/02 10:45:38;;;;;;;1.65;1.55;;;30.30;52.90;;;;;;6232235;28;20211;-64
2023/07/02 10:48:57;;;;;;;1.85;1.58;;;30.40;51.80;;;;;;6225950;28;20232;-67
2023/07/02 10:52:01;;;;;;;1.30;1.20;;;30.50;50.80;;;;;;6225896;28;20276;-64
2023/07/02 10:55:09;;;;;;;1.50;1.40;;;30.50;50.20;;;;;;6234058;28;20242;-59
2023/07/02 10:58:15;;;;;;;2.75;2.30;;;30.50;50.40;;;;;;6250285;28;20238;-60
2023/07/02 11:01:24;;;;;;;3.05;2.75;;;30.50;51.20;;;;;;6252667;28;20235;-59
2023/07/02 11:04:30;;;;;;;9.88;4.97;;;30.30;53.70;;;;;;6250668;28;20231;-60
2023/07/02 11:07:34;;;;;;;4.07;3.63;;;30.40;55.10;;;;;;6249913;28;20305;-61
2023/07/02 11:10:37;;;;;;;2.95;2.72;;;30.60;54.40;;;;;;6249876;28;20231;-62
2023/07/02 11:13:47;;;;;;;4.55;3.53;;;30.50;54.70;;;;;;6249663;28;20563;-62
2023/07/02 11:16:55;;;;;;;2.95;2.75;;;30.60;54.40;;;;;;6249704;28;20223;-59
2023/07/02 11:20:00;;;;;;;3.17;2.97;;;30.80;54.40;;;;;;6249973;28;20227;-58
2023/07/02 11:23:06;;;;;;;3.70;3.40;;;30.90;53.80;;;;;;6249395;28;20691;-57
2023/07/02 11:26:09;;;;;;;2.88;2.60;;;30.90;53.40;;;;;;6249386;28;20219;-58
2023/07/02 11:29:15;;;;;;;4.25;2.65;;;30.70;54.10;;;;;;6249409;28;20678;-59
2023/07/02 11:32:19;;;;;;;3.20;2.80;;;30.70;54.10;;;;;;6249628;28;20233;-62
2023/07/02 11:35:35;;;;;;;5.22;3.35;;;30.80;53.80;;;;;;6271502;28;20238;-63
2023/07/02 11:38:38;;;;;;;4.07;3.67;;;30.80;53.00;;;;;;6274534;28;20233;-64
2023/07/02 11:41:43;;;;;;;5.38;4.88;;;30.80;55.70;;;;;;6274305;28;20246;-60
2023/07/02 11:44:47;;;;;;;3.50;3.20;;;30.50;54.10;;;;;;6275033;28;20447;-59
2023/07/02 11:47:57;;;;;;;5.60;3.75;;;30.40;53.80;;;;;;6274460;28;20226;-61
2023/07/02 11:51:01;;;;;;;3.38;3.08;;;30.40;54.60;;;;;;6274972;28;20223;-60
2023/07/02 11:54:05;;;;;;;3.78;3.47;;;30.10;54.50;;;;;;6276030;28;20222;-61
2023/07/02 11:57:08;;;;;;;4.03;3.72;;;30.00;54.90;;;;;;6276924;28;20571;-61
2023/07/02 12:00:12;;;;;;;3.20;2.83;;;30.30;54.70;;;;;;6261386;28;20222;-61
2023/07/02 12:03:18;;;;;;;2.90;2.70;;;30.30;54.20;;;;;;6257784;28;20262;-60
2023/07/02 12:06:25;;;;;;;3.10;2.90;;;30.40;53.90;;;;;;6277449;28;20238;-60
2023/07/02 12:09:28;;;;;;;3.78;3.47;;;30.60;54.30;;;;;;6278768;28;20309;-61
2023/07/02 12:12:34;;;;;;;3.30;3.03;;;30.80;53.70;;;;;;6278995;28;20226;-61
2023/07/02 12:15:38;;;;;;;3.28;2.80;;;30.70;54.40;;;;;;6278273;28;20804;-62
2023/07/02 12:18:44;;;;;;;3.30;3.10;;;30.70;53.20;;;;;;6278520;28;20235;-59
2023/07/02 12:21:48;;;;;;;4.53;3.20;;;30.60;52.50;;;;;;6278769;28;20222;-59
2023/07/02 12:24:53;;;;;;;3.78;3.40;;;30.70;54.20;;;;;;6278619;28;20677;-59
2023/07/02 12:27:59;;;;;;;4.00;2.72;;;30.40;57.20;;;;;;6278443;28;20247;-59
2023/07/02 12:31:06;;;;;;;3.75;2.83;;;30.20;58.60;;;;;;6278381;28;20230;-59
2023/07/02 12:34:09;;;;;;;3.40;3.10;;;30.00;59.40;;;;;;6260623;28;20238;-63
2023/07/02 12:37:17;;;;;;;4.10;3.33;;;29.80;60.00;;;;;;6260737;28;20235;-59
2023/07/02 12:40:24;;;;;;;3.40;2.20;;;29.60;61.10;;;;;;6277774;28;20675;-60
2023/07/02 12:43:27;;;;;;;2.70;2.50;;;29.30;62.20;;;;;;6278264;28;20227;-62
2023/07/02 12:46:31;;;;;;;2.23;1.90;;;28.80;63.80;;;;;;6277649;28;20226;-62
2023/07/02 12:49:35;;;;;;;2.47;2.17;;;28.40;65.00;;;;;;6277807;28;20239;-60
2023/07/02 12:52:40;;;;;;;2.57;2.10;;;28.00;66.60;;;;;;6277570;28;20666;-60
2023/07/02 12:55:47;;;;;;;2.17;1.97;;;27.80;67.90;;;;;;6277660;28;20310;-60
2023/07/02 12:58:53;;;;;;;3.47;1.27;;;27.50;68.60;;;;;;6277582;28;20560;-60
2023/07/02 13:01:58;;;;;;;2.83;1.60;;;27.40;68.90;;;;;;6277817;28;20237;-60
2023/07/02 13:05:02;;;;;;;1.77;1.67;;;27.40;68.80;;;;;;6268866;28;20239;-60
2023/07/02 13:08:12;;;;;;;3.27;1.50;;;27.40;69.10;;;;;;6277607;28;20652;-60
2023/07/02 13:11:23;;;;;;;5.70;2.40;;;27.50;69.20;;;;;;6277526;28;20330;-61
2023/07/02 13:14:27;;;;;;;2.80;1.60;;;27.60;69.70;;;;;;6277725;28;20231;-60
2023/07/02 13:17:33;;;;;;;2.70;2.07;;;27.80;69.00;;;;;;6276446;28;20659;-60
2023/07/02 13:20:40;;;;;;;7.27;2.50;;;28.10;68.60;;;;;;6277009;28;20202;-60
2023/07/02 13:23:46;;;;;;;1.90;1.80;;;28.50;66.80;;;;;;6277148;28;20239;-60
2023/07/02 13:26:49;;;;;;;2.37;1.77;;;28.80;65.10;;;;;;6277752;28;20239;-60
2023/07/02 13:29:53;;;;;;;1.97;1.80;;;28.90;65.20;;;;;;6277648;28;20232;-60
2023/07/02 13:32:58;;;;;;;2.53;2.33;;;28.90;62.80;;;;;;6277698;28;20241;-60
2023/07/02 13:36:02;;;;;;;2.80;2.47;;;29.10;62.50;;;;;;6278017;28;20237;-60
2023/07/02 13:39:10;;;;;;;2.93;2.63;;;29.20;61.50;;;;;;6260338;28;20562;-62
2023/07/02 13:42:16;;;;;;;2.97;2.77;;;28.90;60.70;;;;;;6260217;28;20247;-62
2023/07/02 13:45:20;;;;;;;2.57;2.37;;;28.80;61.50;;;;;;6276668;28;20571;-61
2023/07/02 13:48:24;;;;;;;2.57;2.37;;;28.90;62.00;;;;;;6276528;28;20230;-61
2023/07/02 13:51:33;;;;;;;3.27;2.40;;;28.90;61.20;;;;;;6276104;28;20296;-61
2023/07/02 13:54:51;;;;;;;3.40;3.10;;;29.00;62.30;;;;;;6276103;28;20227;-60
2023/07/02 13:57:55;;;;;;;5.17;4.07;;;29.10;61.50;;;;;;6276564;28;20235;-61
2023/07/02 14:01:01;;;;;;;3.70;3.40;;;29.20;61.20;;;;;;6276672;28;20238;-61
2023/07/02 14:04:05;;;;;;;3.77;3.47;;;29.20;59.80;;;;;;6276221;28;20227;-62
2023/07/02 14:07:10;;;;;;;5.23;4.73;;;29.50;59.40;;;;;;6271096;28;20246;-60
2023/07/02 14:10:15;;;;;;;3.70;3.40;;;29.80;58.20;;;;;;6275853;28;20234;-60
2023/07/02 14:13:19;;;;;;;3.63;3.33;;;29.90;58.40;;;;;;6277150;28;20231;-63
2023/07/02 14:16:24;;;;;;;3.80;3.33;;;29.80;58.40;;;;;;6275136;28;20223;-64
2023/07/02 14:19:29;;;;;;;3.70;3.40;;;29.80;57.70;;;;;;6275006;28;20241;-65
2023/07/02 14:22:36;;;;;;;4.80;4.40;;;29.80;58.30;;;;;;6274782;28;20223;-65
2023/07/02 14:25:41;;;;;;;4.13;3.73;;;29.70;57.90;;;;;;6275528;28;20231;-65
2023/07/02 14:28:46;;;;;;;4.30;3.95;;;29.70;57.80;;;;;;6275222;28;20227;-64
2023/07/02 14:32:01;;;;;;;4.20;3.80;;;29.80;58.30;;;;;;6278127;28;20214;-65
2023/07/02 14:35:06;;;;;;;4.10;3.80;;;30.10;58.20;;;;;;6277209;28;20233;-66
2023/07/02 14:38:09;;;;;;;4.05;3.70;;;30.30;57.10;;;;;;6274628;28;20239;-65
2023/07/02 14:41:14;;;;;;;4.72;4.22;;;30.20;57.20;;;;;;6274844;28;20235;-64
2023/07/02 14:44:17;;;;;;;4.78;4.38;;;30.10;57.60;;;;;;6275257;28;20314;-64
2023/07/02 14:47:22;;;;;;;4.82;4.43;;;30.00;58.00;;;;;;6275259;28;20380;-65
2023/07/02 14:50:26;;;;;;;3.60;3.30;;;29.90;58.40;;;;;;6275393;28;20229;-64
2023/07/02 14:53:30;;;;;;;4.90;4.50;;;29.80;59.20;;;;;;6275273;28;20222;-63
2023/07/02 14:56:37;;;;;;;4.33;4.00;;;29.50;59.90;;;;;;6274846;28;20207;-63
2023/07/02 14:59:40;;;;;;;5.07;4.67;;;29.30;60.40;;;;;;6258486;28;20217;-63
2023/07/02 15:02:45;;;;;;;4.50;4.10;;;29.20;61.10;;;;;;6276775;28;20215;-64
2023/07/02 15:05:54;;;;;;;4.90;4.50;;;29.20;61.20;;;;;;6274527;28;20234;-64
2023/07/02 15:08:58;;;;;;;5.20;4.70;;;29.00;61.70;;;;;;6274245;28;20314;-64
2023/07/02 15:12:01;;;;;;;5.47;4.97;;;28.90;62.50;;;;;;6274952;28;20226;-64
2023/07/02 15:15:04;;;;;;;4.30;3.90;;;28.90;63.00;;;;;;6274911;28;20215;-64
2023/07/02 15:18:10;;;;;;;4.63;4.23;;;29.00;63.30;;;;;;6274325;28;20231;-66
2023/07/02 15:21:15;;;;;;;5.27;4.30;;;29.00;63.10;;;;;;6274871;28;20235;-64
2023/07/02 15:24:19;;;;;;;4.63;4.23;;;29.10;63.60;;;;;;6274703;28;20253;-64
2023/07/02 15:27:31;;;;;;;4.93;4.53;;;29.00;64.30;;;;;;6274077;28;20362;-63
2023/07/02 15:30:38;;;;;;;4.40;4.07;;;29.00;64.50;;;;;;6274587;28;20227;-64
2023/07/02 15:33:44;;;;;;;5.10;4.60;;;29.00;64.00;;;;;;6274643;28;20317;-63
2023/07/02 15:36:55;;;;;;;5.53;5.10;;;29.00;63.70;;;;;;6274650;28;20372;-63
2023/07/02 15:39:58;;;;;;;7.03;4.93;;;28.80;64.50;;;;;;6277514;28;20276;-63
2023/07/02 15:43:02;;;;;;;6.57;5.00;;;28.80;64.60;;;;;;6279122;28;20230;-64
2023/07/02 15:46:10;;;;;;;4.90;4.50;;;28.70;65.50;;;;;;6279052;28;20227;-63
2023/07/02 15:49:14;;;;;;;5.07;4.57;;;28.60;66.20;;;;;;6279310;28;20227;-65
2023/07/02 15:52:18;;;;;;;5.60;5.07;;;28.50;66.20;;;;;;6279660;28;20240;-63
2023/07/02 15:55:22;;;;;;;4.67;4.27;;;28.50;65.60;;;;;;6279337;28;20227;-63
2023/07/02 15:58:35;;;;;;;5.03;4.63;;;28.50;65.90;;;;;;6280797;28;20239;-64
2023/07/02 16:01:39;;;;;;;6.87;4.47;;;28.50;66.20;;;;;;6283019;28;20609;-63